Aydlett, North Carolina
Current Conditions -  °F | °C
As of 1:35 PM on Thursday 27 Nov 2014 (Local Time) from KONX Reporting Station
Overcast Overcast  
Wind Chill: 45°   Ceiling: 2800
Heat Index: 49°   Visibility: 10mi
Dew Point: 39°   Wind: 8mph
Humidity: 69%   Direction: 30°NNE
Pressure: 29.99"   Gusts: NA
Location:  36.33°N, 75.91°W
Report Text: KONX 271835Z AUTO 03007KT 10SM SCT017 OVC028 09/04 A2999 RMK AO2 T00940040
Loading
Personal Weather Stations






























Interactive Weather Map New forecast layout! Learn more

10-Day Weather Forecast

Advertisements
Track Severe Weather on mobile